createdAt,value
2019-05-06T11:23:04.992Z,35.20
2019-05-06T11:24:06.710Z,35.50
2019-05-06T11:25:05.720Z,35.70
2019-05-06T11:26:05.724Z,35.90
2019-05-06T11:27:05.763Z,35.20
2019-05-06T11:28:05.880Z,34.80
2019-05-06T11:31:38.971Z,35.30
2019-05-06T11:33:05.225Z,35.60
2019-05-06T11:34:05.301Z,35.70
2019-05-06T11:35:05.315Z,36.00
2019-05-06T11:36:05.342Z,36.00
2019-05-06T11:37:07.978Z,36.30
2019-05-06T11:38:08.466Z,36.30
2019-05-06T11:39:07.982Z,35.70
2019-05-06T11:40:05.066Z,35.60
2019-05-06T11:41:07.530Z,34.80
2019-05-06T11:42:32.001Z,34.80
2019-05-06T11:43:07.879Z,34.90
2019-05-06T11:44:09.379Z,35.00
2019-05-06T11:45:07.997Z,35.40
2019-05-06T11:46:05.855Z,35.30
2019-05-06T11:47:08.469Z,34.60
2019-05-06T11:48:05.386Z,34.60
2019-05-06T11:49:05.513Z,34.60
2019-05-06T11:50:05.561Z,35.00
2019-05-06T11:51:08.107Z,35.10
2019-05-06T11:52:07.499Z,35.20
2019-05-06T11:53:07.856Z,34.80
2019-05-06T11:54:20.635Z,34.80
2019-05-06T11:55:10.096Z,34.50
2019-05-06T11:56:07.499Z,34.60
2019-05-06T11:57:14.027Z,34.80
2019-05-06T11:58:05.022Z,34.80
2019-05-06T11:59:05.053Z,34.70
2019-05-06T12:00:05.635Z,34.80
2019-05-06T12:01:05.727Z,34.70
2019-05-06T12:02:08.330Z,35.20
2019-05-06T12:08:08.686Z,35.20
2019-05-06T12:09:06.855Z,35.00
2019-05-06T12:10:04.897Z,34.60
2019-05-06T12:11:07.505Z,34.50
2019-05-06T12:12:05.406Z,34.50
2019-05-06T12:13:05.399Z,34.70
2019-05-06T12:14:07.959Z,34.40
2019-05-06T12:15:07.570Z,34.40
2019-05-06T12:16:08.169Z,34.20
2019-05-06T12:17:07.603Z,34.00
2019-05-06T12:18:05.440Z,34.00
2019-05-06T12:19:08.020Z,33.60
2019-05-06T12:20:07.663Z,33.60
2019-05-06T12:21:18.563Z,33.60
2019-05-06T12:22:07.466Z,33.10
2019-05-06T12:23:05.451Z,33.10
2019-05-06T12:24:07.993Z,33.50
2019-05-06T12:25:05.850Z,33.60
2019-05-06T12:26:08.363Z,34.50
2019-05-06T12:27:15.427Z,34.60
2019-05-06T12:28:08.032Z,34.60
2019-05-06T12:29:04.930Z,34.70
2019-05-06T12:30:05.870Z,34.70
2019-05-06T12:31:04.902Z,34.10
2019-05-06T12:32:07.521Z,34.00
2019-05-06T12:33:08.025Z,34.00
2019-05-06T12:34:04.916Z,34.00
2019-05-06T12:35:07.459Z,33.60
2019-05-06T12:36:05.370Z,33.60
2019-05-06T12:37:05.591Z,33.90
2019-05-06T12:38:30.598Z,33.90
2019-05-06T12:39:07.045Z,33.90
2019-05-06T12:40:05.221Z,33.80
2019-05-06T12:41:05.271Z,33.80
2019-05-06T12:42:05.249Z,33.70
2019-05-06T12:43:05.270Z,34.10
2019-05-06T12:44:07.794Z,34.30
2019-05-06T12:45:05.700Z,34.30
2019-05-06T12:46:05.810Z,34.40
2019-05-06T12:47:05.825Z,34.30
2019-05-06T12:48:05.841Z,34.00
2019-05-06T12:49:05.879Z,34.00
2019-05-06T12:50:07.397Z,34.10
2019-05-06T12:51:07.758Z,33.30
2019-05-06T12:52:05.647Z,33.30
2019-05-06T12:53:05.788Z,32.90
2019-05-06T12:54:08.402Z,32.60
2019-05-06T12:55:22.523Z,32.60
2019-05-06T12:56:05.610Z,32.40
2019-05-06T12:57:08.256Z,31.70
2019-05-06T12:58:05.105Z,31.80
2019-05-06T12:59:05.117Z,31.60
2019-05-06T13:00:07.570Z,31.60
2019-05-06T13:01:07.892Z,31.20
2019-05-06T13:02:05.741Z,31.20
2019-05-06T13:03:05.722Z,31.10
2019-05-06T13:04:05.776Z,30.70
2019-05-06T13:05:05.788Z,30.70
2019-05-06T13:06:09.222Z,30.80
2019-05-06T13:07:05.417Z,30.60
2019-05-06T13:08:07.008Z,30.90
2019-05-06T13:09:05.862Z,31.80
2019-05-06T13:10:04.929Z,31.70
2019-05-06T13:11:04.914Z,31.70
2019-05-06T13:12:04.899Z,31.10
2019-05-06T13:13:07.535Z,31.20
2019-05-06T13:14:07.990Z,31.50
2019-05-06T13:15:08.408Z,31.60
2019-05-06T13:16:07.953Z,32.10
2019-05-06T13:17:08.350Z,32.50
2019-05-06T13:18:07.726Z,32.40
2019-05-06T13:19:08.382Z,31.70
2019-05-06T13:20:05.329Z,31.70
2019-05-06T13:21:06.974Z,31.60
2019-05-06T13:22:10.025Z,31.10
2019-05-06T13:23:15.638Z,31.10
2019-05-06T13:24:05.626Z,30.80
2019-05-06T13:25:05.636Z,30.70
2019-05-06T13:26:08.128Z,30.30
2019-05-06T13:27:04.996Z,30.20
2019-05-06T13:28:07.602Z,29.30
2019-05-06T13:29:05.439Z,29.30
2019-05-06T13:30:05.472Z,29.80
2019-05-06T13:31:21.256Z,30.00
2019-05-06T13:32:05.583Z,29.10
2019-05-06T13:33:05.855Z,29.30
2019-05-06T13:34:05.188Z,29.20
2019-05-06T13:35:05.329Z,29.50
2019-05-06T13:36:07.964Z,29.60
2019-05-06T13:37:08.482Z,29.80
2019-05-06T13:38:07.974Z,30.10
2019-05-06T13:39:15.282Z,30.10
2019-05-06T13:40:05.492Z,31.00
2019-05-06T13:41:05.604Z,30.80
2019-05-06T13:42:05.561Z,30.80
2019-05-06T13:43:05.937Z,31.00
2019-05-06T13:44:05.083Z,31.30
2019-05-06T13:45:05.286Z,31.20
2019-05-06T13:46:07.777Z,30.70
2019-05-06T13:47:05.779Z,30.60
2019-05-06T13:48:05.775Z,30.90
2019-05-06T13:49:14.192Z,30.50
2019-05-06T13:50:13.998Z,30.50
2019-05-06T13:51:08.403Z,30.50
2019-05-06T13:52:05.481Z,30.50
2019-05-06T13:53:14.579Z,30.40
2019-05-06T13:54:05.745Z,30.60
2019-05-06T13:55:05.749Z,31.10
2019-05-06T13:56:05.969Z,31.00
2019-05-06T13:57:05.079Z,31.20
2019-05-06T13:58:07.659Z,31.20
2019-05-06T13:59:05.704Z,31.20
2019-05-06T14:00:08.249Z,30.90
2019-05-06T14:01:05.182Z,30.90
2019-05-06T14:02:08.447Z,31.10
2019-05-06T14:03:08.271Z,31.50
2019-05-06T14:04:07.724Z,31.50
2019-05-06T14:05:08.108Z,31.70
2019-05-06T14:06:07.738Z,31.30
2019-05-06T14:07:07.881Z,31.20
2019-05-06T14:08:05.330Z,31.40
2019-05-06T14:09:08.199Z,31.60
2019-05-06T14:10:05.284Z,31.60
2019-05-06T14:11:05.353Z,31.50
2019-05-06T14:12:08.041Z,31.50
2019-05-06T14:13:14.185Z,31.60
2019-05-06T14:14:08.055Z,31.70
2019-05-06T14:15:05.030Z,31.70
2019-05-06T14:16:05.158Z,31.80
2019-05-06T14:17:05.285Z,31.70
2019-05-06T14:18:05.457Z,31.70
2019-05-06T14:19:05.509Z,31.60
2019-05-06T14:20:05.961Z,31.50
2019-05-06T14:21:05.284Z,31.50
2019-05-06T14:22:05.520Z,31.20
2019-05-06T14:23:08.116Z,30.90
2019-05-06T14:24:05.044Z,30.90
2019-05-06T14:25:08.121Z,31.20
2019-05-06T14:26:07.540Z,31.60
2019-05-06T14:27:08.435Z,31.90
2019-05-06T14:28:05.706Z,31.90
2019-05-06T14:29:06.118Z,31.90
2019-05-06T14:30:05.473Z,31.90
2019-05-06T14:31:05.622Z,31.90
2019-05-06T14:32:09.169Z,32.40
2019-05-06T14:33:05.217Z,32.30
2019-05-06T14:34:05.333Z,32.30
2019-05-06T14:35:05.756Z,32.30
2019-05-06T14:36:05.823Z,32.30
2019-05-06T14:37:10.304Z,32.30
2019-05-06T14:38:05.160Z,32.30
2019-05-06T14:39:05.438Z,32.00
2019-05-06T14:40:05.448Z,31.90
2019-05-06T14:41:08.680Z,31.90
2019-05-06T14:42:05.896Z,32.20
2019-05-06T14:43:05.675Z,32.20
2019-05-06T14:44:09.516Z,32.10
2019-05-06T14:45:08.221Z,32.10
2019-05-06T14:46:05.105Z,32.10
2019-05-06T14:47:07.658Z,32.20
2019-05-06T14:48:05.528Z,32.20
2019-05-06T14:49:05.601Z,32.50
2019-05-06T14:50:08.145Z,32.60
2019-05-06T14:51:07.676Z,32.40
2019-05-06T14:52:05.559Z,32.30
2019-05-06T14:53:05.653Z,32.20
2019-05-06T14:54:08.217Z,32.20
2019-05-06T14:55:05.184Z,32.30
2019-05-06T14:56:05.224Z,32.40
2019-05-06T14:57:06.088Z,32.40
2019-05-06T14:58:05.115Z,32.30
2019-05-06T14:59:07.641Z,31.90
2019-05-06T15:00:08.204Z,32.00
2019-05-06T15:01:05.185Z,32.00
2019-05-06T15:02:07.904Z,32.10
2019-05-06T15:03:08.418Z,31.90
2019-05-06T15:04:07.842Z,32.10
2019-05-06T15:05:05.732Z,32.10
2019-05-06T15:06:05.721Z,31.90
2019-05-06T15:07:08.339Z,32.20
2019-05-06T15:08:05.405Z,32.20
2019-05-06T15:09:05.655Z,32.50
2019-05-06T15:10:25.560Z,32.80
2019-05-06T15:11:05.373Z,32.80
2019-05-06T15:12:08.218Z,32.80
2019-05-06T15:13:05.877Z,32.80
2019-05-06T15:14:05.396Z,33.00
2019-05-06T15:15:05.846Z,33.20
2019-05-06T15:16:05.385Z,33.10
2019-05-06T15:17:05.980Z,32.80
2019-05-06T15:18:05.495Z,32.40
2019-05-06T15:19:05.943Z,32.30
2019-05-06T15:20:05.393Z,32.50
2019-05-06T15:21:38.261Z,32.50
2019-05-06T15:22:05.119Z,32.70
2019-05-06T15:23:14.697Z,32.90
2019-05-06T15:24:06.301Z,32.90
2019-05-06T15:25:08.389Z,32.70
2019-05-06T15:26:05.949Z,32.70
2019-05-06T15:27:14.063Z,33.00
2019-05-06T15:28:05.868Z,33.00
2019-05-06T15:29:14.369Z,33.00
2019-05-06T15:30:06.025Z,33.00
2019-05-06T15:31:05.751Z,33.00
2019-05-06T15:32:08.364Z,33.00
2019-05-06T15:33:06.072Z,33.00
2019-05-06T15:34:08.322Z,33.00
2019-05-06T15:35:05.885Z,33.00
2019-05-06T15:36:05.799Z,33.00
2019-05-06T15:37:05.682Z,33.10
2019-05-06T15:38:16.322Z,32.90
2019-05-06T15:39:06.063Z,32.90
2019-05-06T15:40:05.909Z,33.10
2019-05-06T15:41:05.776Z,33.20
2019-05-06T15:42:05.544Z,33.00
2019-05-06T15:43:06.436Z,32.90
2019-05-06T15:44:15.039Z,32.90
2019-05-06T15:45:05.767Z,32.90
2019-05-06T15:46:06.698Z,33.10
2019-05-06T15:47:14.424Z,33.40
2019-05-06T15:48:06.056Z,33.40
2019-05-06T15:49:05.836Z,33.50
2019-05-06T15:50:08.112Z,33.70
2019-05-06T15:51:08.140Z,33.70
2019-05-06T15:52:05.773Z,33.70
2019-05-06T15:53:08.864Z,33.50
2019-05-06T15:54:08.478Z,33.40
2019-05-06T15:55:08.130Z,33.40
2019-05-06T15:56:08.201Z,33.20
2019-05-06T15:57:05.822Z,33.20
2019-05-06T15:58:05.314Z,33.00
2019-05-06T15:59:05.695Z,33.10
2019-05-06T16:00:06.069Z,32.90
2019-05-06T16:01:05.766Z,33.00
2019-05-06T16:02:11.305Z,32.70
2019-05-06T16:03:08.340Z,32.70
2019-05-06T16:04:05.828Z,32.70
2019-05-06T16:05:19.366Z,32.70
2019-05-06T16:06:14.436Z,32.70
2019-05-06T16:07:06.133Z,32.70
2019-05-06T16:08:10.738Z,33.00
2019-05-06T16:09:06.404Z,33.00
2019-05-06T16:10:08.655Z,32.50
2019-05-06T16:11:06.039Z,32.50
2019-05-06T16:12:05.836Z,32.80
2019-05-06T16:13:12.686Z,33.20
2019-05-06T16:14:07.981Z,33.50
2019-05-06T16:15:12.748Z,33.80
2019-05-06T16:16:07.724Z,33.80
2019-05-06T16:17:06.461Z,33.80
2019-05-06T16:18:06.387Z,33.90
2019-05-06T16:19:06.441Z,33.90
2019-05-06T16:20:06.209Z,34.00
2019-05-06T16:21:08.528Z,34.00
2019-05-06T16:22:06.176Z,34.00
2019-05-06T16:23:14.778Z,33.80
2019-05-06T16:24:06.495Z,33.80
2019-05-06T16:25:06.619Z,33.80
2019-05-06T16:26:06.317Z,33.80
2019-05-06T16:27:08.484Z,33.80
2019-05-06T16:28:14.505Z,33.80
2019-05-06T16:29:05.883Z,33.80
2019-05-06T16:30:05.538Z,34.00
2019-05-06T16:31:06.337Z,33.90
2019-05-06T16:32:06.050Z,34.00
2019-05-06T16:33:05.873Z,33.50
2019-05-06T16:34:05.586Z,33.50
2019-05-06T16:35:06.560Z,33.60
2019-05-06T16:36:06.491Z,33.40
2019-05-06T16:37:06.382Z,33.30
2019-05-06T16:38:14.631Z,33.30
2019-05-06T16:39:08.277Z,33.40
2019-05-06T16:40:07.424Z,33.30
2019-05-06T16:41:16.269Z,33.30
2019-05-06T16:42:14.598Z,33.40
2019-05-06T16:43:09.775Z,33.60
2019-05-06T16:44:06.632Z,33.70
2019-05-06T16:45:14.602Z,33.70
2019-05-06T16:46:06.492Z,33.70
2019-05-06T16:47:12.541Z,33.90
2019-05-06T16:48:08.279Z,33.70
2019-05-06T16:49:05.950Z,33.70
2019-05-06T16:50:14.543Z,33.80
2019-05-06T16:51:06.107Z,33.70
2019-05-06T16:52:05.944Z,33.80
2019-05-06T16:53:05.727Z,33.80
2019-05-06T16:54:06.535Z,33.80
2019-05-06T16:55:06.323Z,33.50
2019-05-06T16:56:06.036Z,33.70
2019-05-06T16:57:05.753Z,33.80
2019-05-06T16:58:14.441Z,34.00
2019-05-06T16:59:10.318Z,34.00
2019-05-06T17:05:09.221Z,33.80
2019-05-06T17:06:05.984Z,33.80
2019-05-06T17:07:06.013Z,33.70
2019-05-06T17:08:06.514Z,33.60
2019-05-06T17:09:23.789Z,33.80
2019-05-06T17:10:06.687Z,33.80
2019-05-06T17:11:31.650Z,34.00
2019-05-06T17:12:14.667Z,34.10
2019-05-06T17:13:09.029Z,34.20
2019-05-06T17:14:05.708Z,34.20
2019-05-06T17:15:06.628Z,34.30
2019-05-06T17:16:06.479Z,34.10
2019-05-06T17:17:06.345Z,34.20
2019-05-06T17:18:16.329Z,34.00
2019-05-06T17:19:06.915Z,34.00
2019-05-06T17:20:06.748Z,34.10
2019-05-06T17:21:07.460Z,34.10
2019-05-06T17:22:08.860Z,34.20
2019-05-06T17:23:06.752Z,34.20
2019-05-06T17:24:06.758Z,34.40
2019-05-06T17:25:07.498Z,34.40
2019-05-06T17:26:06.177Z,34.40
2019-05-06T17:27:06.116Z,34.50
2019-05-06T17:28:08.629Z,34.60
2019-05-06T17:29:06.690Z,34.70
2019-05-06T17:30:14.614Z,34.90
2019-05-06T17:31:06.392Z,34.90
2019-05-06T17:32:06.162Z,34.90
2019-05-06T17:33:06.014Z,34.80
2019-05-06T17:34:08.346Z,35.00
2019-05-06T17:35:06.081Z,35.00
2019-05-06T17:36:05.933Z,35.00
2019-05-06T17:37:05.695Z,35.10
2019-05-06T17:38:07.135Z,35.20
2019-05-06T17:39:16.195Z,35.20
2019-05-06T17:40:14.702Z,35.20
2019-05-06T17:41:09.102Z,35.20
2019-05-06T17:42:05.963Z,35.20
2019-05-06T17:43:05.888Z,35.30
2019-05-06T17:44:14.188Z,35.50
2019-05-06T17:45:06.053Z,35.50
2019-05-06T17:46:15.220Z,35.50
2019-05-06T17:47:05.941Z,35.60
2019-05-06T17:48:05.751Z,35.70
2019-05-06T17:49:06.589Z,35.70
2019-05-06T17:50:06.563Z,35.70
2019-05-06T17:51:06.322Z,35.80
2019-05-06T17:52:11.143Z,35.60
2019-05-06T17:53:14.316Z,35.50
2019-05-06T17:54:09.154Z,35.60
2019-05-06T17:55:05.971Z,35.60
2019-05-06T17:56:08.291Z,35.70
2019-05-06T17:57:14.448Z,35.70
2019-05-06T17:58:06.201Z,35.70
2019-05-06T17:59:06.158Z,35.70
2019-05-06T18:00:06.719Z,35.70
2019-05-06T18:01:06.681Z,35.70
2019-05-06T18:02:06.589Z,35.80
2019-05-06T18:03:06.403Z,35.80
2019-05-06T18:04:08.977Z,35.80
2019-05-06T18:05:14.881Z,35.90
2019-05-06T18:06:14.729Z,35.90
2019-05-06T18:07:08.217Z,36.00
2019-05-06T18:08:06.366Z,36.10
2019-05-06T18:09:06.137Z,36.20
2019-05-06T18:10:07.536Z,36.30
2019-05-06T18:11:06.410Z,36.50
2019-05-06T18:12:06.279Z,36.60
2019-05-06T18:13:08.063Z,36.70
2019-05-06T18:14:08.483Z,36.80
2019-05-06T18:15:06.290Z,36.70
2019-05-06T18:16:06.088Z,36.80
2019-05-06T18:17:06.382Z,37.00
2019-05-06T18:18:06.297Z,37.00
2019-05-06T18:19:06.152Z,37.00
2019-05-06T18:20:06.071Z,37.20
2019-05-06T18:21:08.446Z,37.40
2019-05-06T18:22:08.747Z,37.50
2019-05-06T18:23:14.730Z,37.60
2019-05-06T18:24:14.697Z,37.80
2019-05-06T18:25:14.694Z,38.10
2019-05-06T18:26:08.915Z,38.30
2019-05-06T18:27:05.715Z,38.30
2019-05-06T18:28:06.452Z,38.80
2019-05-06T18:29:08.952Z,39.30
2019-05-06T18:30:25.366Z,39.30
2019-05-06T18:31:16.785Z,39.80
2019-05-06T18:32:06.594Z,39.80
2019-05-06T18:33:06.891Z,39.80
2019-05-06T18:34:07.274Z,39.80
2019-05-06T18:35:06.090Z,39.90
2019-05-06T18:36:07.084Z,40.00
2019-05-06T18:37:06.028Z,40.20
2019-05-06T18:38:06.034Z,40.30
2019-05-06T18:39:15.233Z,40.60
2019-05-06T18:40:14.157Z,40.60
2019-05-06T18:41:05.841Z,40.70
2019-05-06T18:42:23.291Z,40.80
2019-05-06T18:43:06.340Z,40.90
2019-05-06T18:44:06.167Z,40.90
2019-05-06T18:45:06.186Z,41.10
2019-05-06T18:46:06.208Z,41.30
2019-05-06T18:47:05.957Z,41.40
2019-05-06T18:48:06.356Z,41.50
2019-05-06T18:49:06.095Z,41.70
2019-05-06T18:50:06.130Z,41.70
2019-05-06T18:51:05.952Z,41.70
2019-05-06T18:52:06.467Z,41.70
2019-05-06T18:53:06.216Z,42.00
2019-05-06T18:54:06.473Z,42.20
2019-05-06T18:55:06.382Z,42.20
2019-05-06T18:56:06.730Z,42.40
2019-05-06T18:57:07.028Z,42.30
2019-05-06T18:58:14.675Z,42.60
2019-05-06T18:59:06.350Z,42.60
2019-05-06T19:00:07.604Z,42.70
2019-05-06T19:01:10.416Z,43.00
2019-05-06T19:02:06.212Z,43.00
2019-05-06T19:03:11.972Z,42.80
2019-05-06T19:04:06.834Z,42.80
2019-05-06T19:05:06.227Z,42.90
2019-05-06T19:06:07.200Z,42.90
2019-05-06T19:07:17.092Z,43.10
2019-05-06T19:08:15.345Z,43.30
2019-05-06T19:09:06.116Z,43.30
2019-05-06T19:10:06.437Z,43.20
2019-05-06T19:11:06.310Z,43.20
2019-05-06T19:12:07.012Z,43.60
2019-05-06T19:13:08.569Z,43.60
2019-05-06T19:14:09.095Z,43.90
2019-05-06T19:15:14.687Z,43.80
2019-05-06T19:16:06.451Z,43.90
2019-05-06T19:17:05.917Z,43.90
2019-05-06T19:18:05.694Z,43.90
2019-05-06T19:19:06.880Z,43.90
2019-05-06T19:20:11.610Z,44.00
2019-05-06T19:21:08.905Z,43.90
2019-05-06T19:22:14.682Z,44.00
2019-05-06T19:23:14.682Z,44.00
2019-05-06T19:24:06.361Z,44.00
2019-05-06T19:25:07.358Z,44.00
2019-05-06T19:26:06.241Z,44.20
2019-05-06T19:27:08.790Z,44.10
2019-05-06T19:28:09.047Z,44.10
2019-05-06T19:29:05.893Z,44.10
2019-05-06T19:30:05.745Z,44.30
2019-05-06T19:31:05.993Z,44.30
2019-05-06T19:32:06.084Z,44.20
2019-05-06T19:33:08.921Z,44.70
2019-05-06T19:34:08.318Z,45.10
2019-05-06T19:35:15.484Z,44.80
2019-05-06T19:36:06.206Z,44.80
2019-05-06T19:37:06.029Z,44.70
2019-05-06T19:38:08.422Z,44.60
2019-05-06T19:39:14.632Z,44.60
2019-05-06T19:40:06.355Z,44.60
2019-05-06T19:41:07.772Z,44.60
2019-05-06T19:42:06.480Z,44.60
2019-05-06T19:43:08.844Z,44.90
2019-05-06T19:44:06.550Z,44.90
2019-05-06T19:45:06.426Z,45.20
2019-05-06T19:46:06.234Z,45.40
2019-05-06T19:47:06.047Z,45.20
2019-05-06T19:48:05.884Z,45.20
2019-05-06T19:49:05.830Z,45.30
2019-05-06T19:50:08.206Z,45.30
2019-05-06T19:51:05.848Z,45.30
2019-05-06T19:52:05.592Z,45.40
2019-05-06T19:53:06.401Z,45.40
2019-05-06T19:54:08.783Z,45.50
2019-05-06T19:55:06.436Z,45.50
2019-05-06T19:56:06.268Z,45.50
2019-05-06T19:57:06.537Z,45.60
2019-05-06T19:58:05.654Z,45.70
2019-05-06T19:59:06.514Z,45.70
2019-05-06T20:00:11.593Z,46.10
2019-05-06T20:01:06.248Z,46.10
2019-05-06T20:02:14.745Z,46.10
2019-05-06T20:03:06.469Z,46.10
2019-05-06T20:04:06.448Z,46.10
2019-05-06T20:05:06.196Z,46.10
2019-05-06T20:06:05.730Z,46.10
2019-05-06T20:07:06.446Z,46.20
2019-05-06T20:08:06.219Z,46.30
2019-05-06T20:09:08.682Z,46.30
2019-05-06T20:10:06.437Z,46.30
2019-05-06T20:11:06.250Z,46.40
2019-05-06T20:12:05.997Z,46.60
2019-05-06T20:13:06.266Z,46.50
2019-05-06T20:14:06.078Z,46.70
2019-05-06T20:15:06.224Z,46.60
2019-05-06T20:16:08.611Z,46.60
2019-05-06T20:17:06.247Z,46.60
2019-05-06T20:18:05.987Z,46.90
2019-05-06T20:19:12.730Z,47.00
2019-05-06T20:20:05.773Z,47.00
2019-05-06T20:21:11.651Z,46.90
2019-05-06T20:22:06.496Z,46.90
2019-05-06T20:23:06.254Z,46.90
2019-05-06T20:24:06.172Z,46.90
2019-05-06T20:25:05.904Z,46.90
2019-05-06T20:26:06.279Z,47.10
2019-05-06T20:27:06.019Z,47.10
2019-05-06T20:28:05.937Z,47.40
2019-05-06T20:29:05.805Z,47.50
2019-05-06T20:30:09.108Z,47.40
2019-05-06T20:31:05.722Z,47.40
2019-05-06T20:32:06.786Z,47.60
2019-05-06T20:33:08.996Z,47.80
2019-05-06T20:34:05.725Z,47.90
2019-05-06T20:35:07.200Z,48.00
2019-05-06T20:36:05.876Z,48.00
2019-05-06T20:37:05.645Z,48.20
2019-05-06T20:38:06.397Z,48.60
2019-05-06T20:39:06.181Z,48.60
2019-05-06T20:40:05.905Z,48.60
2019-05-06T20:41:14.704Z,48.90
2019-05-06T20:42:08.802Z,48.80
2019-05-06T20:43:20.586Z,48.80
2019-05-06T20:44:08.643Z,49.30
2019-05-06T20:45:06.306Z,49.30
2019-05-06T20:46:05.949Z,49.30
2019-05-06T20:47:05.724Z,49.40
2019-05-06T20:48:06.358Z,49.40
2019-05-06T20:49:05.990Z,49.70
2019-05-06T20:50:05.649Z,49.70
2019-05-06T20:51:06.660Z,49.80
2019-05-06T20:52:06.342Z,49.90
2019-05-06T20:53:06.092Z,49.80
2019-05-06T20:54:05.884Z,49.90
2019-05-06T20:55:15.975Z,50.00
2019-05-06T20:56:05.755Z,50.00
2019-05-06T20:57:06.495Z,50.10
2019-05-06T20:58:05.930Z,50.10
2019-05-06T20:59:05.486Z,50.20
2019-05-06T21:00:07.992Z,50.30
2019-05-06T21:01:05.421Z,50.40
2019-05-06T21:02:08.906Z,50.20
2019-05-06T21:03:06.503Z,50.20
2019-05-06T21:04:06.225Z,50.20
2019-05-06T21:05:05.736Z,50.20
2019-05-06T21:06:05.804Z,50.20
2019-05-06T21:07:05.614Z,50.30
2019-05-06T21:08:06.499Z,50.30
2019-05-06T21:09:14.757Z,50.50
2019-05-06T21:10:06.322Z,50.40
2019-05-06T21:11:06.012Z,50.40
2019-05-06T21:12:05.846Z,50.40
2019-05-06T21:13:05.665Z,50.40
2019-05-06T21:14:06.377Z,50.40
2019-05-06T21:15:05.816Z,50.40
2019-05-06T21:16:08.722Z,50.40
2019-05-06T21:17:06.024Z,50.50
2019-05-06T21:18:05.345Z,50.50
2019-05-06T21:19:14.448Z,50.60
2019-05-06T21:20:09.368Z,50.60
2019-05-06T21:21:05.701Z,50.50
2019-05-06T21:22:14.634Z,50.50
2019-05-06T21:23:05.961Z,50.50
2019-05-06T21:24:12.706Z,50.60
2019-05-06T21:25:05.598Z,50.60
2019-05-06T21:26:08.427Z,50.50
2019-05-06T21:27:08.210Z,50.60
2019-05-06T21:28:05.281Z,50.60
2019-05-06T21:29:05.469Z,50.70
2019-05-06T21:30:08.322Z,50.90
2019-05-06T21:31:05.443Z,50.90
2019-05-06T21:32:08.109Z,51.00
2019-05-06T21:33:05.185Z,51.00
2019-05-06T21:34:07.843Z,51.10
2019-05-06T21:35:08.315Z,51.20
2019-05-06T21:36:08.024Z,51.20
2019-05-06T21:37:05.047Z,51.20
2019-05-06T21:38:07.648Z,51.20
2019-05-06T21:39:05.815Z,51.20
2019-05-06T21:40:07.582Z,51.10
2019-05-06T21:41:08.032Z,51.20
2019-05-06T21:42:04.995Z,51.20
2019-05-06T21:43:07.633Z,51.40
2019-05-06T21:44:05.686Z,51.40
2019-05-06T21:45:05.774Z,51.40
2019-05-06T21:46:05.917Z,51.40
2019-05-06T21:47:05.073Z,51.30
2019-05-06T21:48:05.439Z,51.40
2019-05-06T21:49:08.145Z,51.40
2019-05-06T21:50:12.336Z,51.40
2019-05-06T21:51:05.311Z,51.40
2019-05-06T21:52:08.003Z,51.40
2019-05-06T21:53:04.963Z,51.30
2019-05-06T21:54:05.321Z,51.40
2019-05-06T21:55:08.068Z,51.30
2019-05-06T21:56:05.094Z,51.30
2019-05-06T21:57:05.175Z,51.40
2019-05-06T21:58:05.337Z,51.40
2019-05-06T21:59:05.454Z,51.40
2019-05-06T22:00:08.329Z,51.40
2019-05-06T22:01:07.758Z,51.40
2019-05-06T22:02:12.383Z,51.40
2019-05-06T22:03:07.884Z,51.40
2019-05-06T22:04:14.762Z,51.40
2019-05-06T22:05:05.721Z,51.40
2019-05-06T22:06:05.885Z,51.50
2019-05-06T22:07:05.007Z,51.50
2019-05-06T22:08:05.043Z,51.50
2019-05-06T22:09:05.212Z,51.40
2019-05-06T22:10:07.863Z,51.40
2019-05-06T22:11:08.270Z,51.40
2019-05-06T22:12:10.240Z,51.40
2019-05-06T22:13:05.360Z,51.40
2019-05-06T22:14:05.472Z,51.40
2019-05-06T22:15:05.589Z,51.40
2019-05-06T22:16:05.678Z,51.40
2019-05-06T22:17:05.859Z,51.40
2019-05-06T22:18:07.609Z,51.40
2019-05-06T22:19:12.502Z,51.50
2019-05-06T22:20:05.454Z,51.50
2019-05-06T22:21:08.046Z,51.50
2019-05-06T22:22:07.588Z,51.50
2019-05-06T22:23:08.046Z,51.50
2019-05-06T22:24:12.364Z,51.60
2019-05-06T22:25:07.850Z,51.60
2019-05-06T22:26:16.240Z,51.60
2019-05-06T22:27:05.527Z,51.70
2019-05-06T22:28:08.197Z,51.60
2019-05-06T22:29:05.190Z,51.60
2019-05-06T22:30:05.397Z,51.70
2019-05-06T22:31:05.522Z,51.60
2019-05-06T22:32:08.213Z,51.70
2019-05-06T22:33:05.235Z,51.70
2019-05-06T22:34:05.380Z,51.70
2019-05-06T22:35:07.969Z,51.80
2019-05-06T22:36:10.084Z,51.80
2019-05-06T22:37:07.700Z,51.80
2019-05-06T22:38:05.754Z,51.80
2019-05-06T22:39:05.938Z,51.80
2019-05-06T22:40:05.042Z,51.80
2019-05-06T22:41:14.314Z,51.80
2019-05-06T22:42:05.280Z,51.80
2019-05-06T22:43:05.328Z,51.90
2019-05-06T22:44:16.984Z,51.90
2019-05-06T22:45:05.228Z,52.00
2019-05-06T22:46:07.844Z,52.10
2019-05-06T22:47:08.345Z,52.10
2019-05-06T22:48:05.366Z,52.10
2019-05-06T22:49:05.500Z,52.20
2019-05-06T22:50:08.232Z,52.10
2019-05-06T22:51:05.208Z,52.10
2019-05-06T22:52:14.410Z,52.20
2019-05-06T22:53:12.513Z,52.30
2019-05-06T22:54:05.379Z,52.30
2019-05-06T22:55:05.572Z,52.30
2019-05-06T22:56:05.817Z,52.40
2019-05-06T22:57:08.393Z,52.60
2019-05-06T22:58:05.322Z,52.60
2019-05-06T22:59:05.621Z,52.60
2019-05-06T23:00:08.334Z,52.80
2019-05-06T23:01:07.749Z,52.70
2019-05-06T23:02:12.922Z,52.90
2019-05-06T23:03:05.315Z,52.90
2019-05-06T23:04:05.534Z,53.10
2019-05-06T23:05:08.371Z,53.00
2019-05-06T23:06:05.343Z,53.00
2019-05-06T23:07:07.910Z,53.30
2019-05-06T23:08:12.672Z,53.20
2019-05-06T23:09:08.191Z,53.10
2019-05-06T23:10:05.135Z,53.10
2019-05-06T23:11:05.179Z,53.40
2019-05-06T23:12:05.296Z,53.40
2019-05-06T23:13:05.565Z,53.40
2019-05-06T23:14:05.687Z,53.40
2019-05-06T23:15:05.770Z,53.30
2019-05-06T23:16:05.856Z,53.50
2019-05-06T23:17:07.608Z,53.40
2019-05-06T23:18:10.685Z,53.30
2019-05-06T23:19:08.277Z,53.30
2019-05-06T23:20:05.234Z,53.30
2019-05-06T23:21:05.597Z,53.40
2019-05-06T23:22:07.516Z,53.30
2019-05-06T23:23:08.153Z,53.40
2019-05-06T23:24:05.100Z,53.40
2019-05-06T23:25:07.842Z,53.40
2019-05-06T23:26:05.817Z,53.40
2019-05-06T23:27:06.077Z,53.50
2019-05-06T23:28:07.667Z,53.40
2019-05-06T23:29:05.630Z,53.40
2019-05-06T23:30:05.803Z,53.50
2019-05-06T23:31:05.930Z,53.40
2019-05-06T23:32:05.111Z,53.40
2019-05-06T23:33:07.773Z,53.40
2019-05-06T23:34:05.718Z,53.40
2019-05-06T23:35:05.794Z,53.50
2019-05-06T23:36:08.366Z,53.30
2019-05-06T23:37:05.271Z,53.30
2019-05-06T23:38:05.362Z,53.30
2019-05-06T23:39:05.458Z,53.30
2019-05-06T23:40:05.557Z,53.40
2019-05-06T23:41:05.654Z,53.50
2019-05-06T23:42:05.733Z,53.50
2019-05-06T23:43:05.806Z,53.60
2019-05-06T23:44:05.897Z,53.60
2019-05-06T23:45:07.586Z,53.80
2019-05-06T23:46:05.562Z,53.70
2019-05-06T23:47:05.777Z,53.60
2019-05-06T23:48:08.452Z,53.70
2019-05-06T23:49:08.047Z,53.80
2019-05-06T23:50:05.005Z,53.80
2019-05-06T23:51:05.358Z,53.80
2019-05-06T23:52:05.548Z,53.90
2019-05-06T23:53:05.693Z,54.10
2019-05-06T23:54:05.777Z,54.40
2019-05-06T23:55:05.854Z,54.30
2019-05-06T23:56:05.029Z,54.40
2019-05-06T23:57:05.136Z,54.60
2019-05-06T23:58:10.311Z,54.70
2019-05-06T23:59:05.251Z,54.70
